Time;durP1;ratioP1;P1;durP2;ratioP2;P2;SDS_P1;SDS_P2;PMS_P1;PMS_P2;Temp;Humidity;BMP_temperature;BMP_pressure;BME280_temperature;BME280_humidity;BME280_pressure;Samples;Min_cycle;Max_cycle;Signal;HPM_P1;HPM_P2
2021/04/12 00:00:28;;;;;;;7.07;2.08;;;;;;;-143.98;100.00;68091.63;5084047;28;19995;-80
2021/04/12 00:03:19;;;;;;;8.43;2.03;;;;;;;-143.98;100.00;68091.63;5100238;28;20396;-80
2021/04/12 00:05:52;;;;;;;6.25;2.25;;;;;;;-143.98;100.00;68091.63;5101024;28;20055;-80
2021/04/12 00:08:40;;;;;;;9.23;2.28;;;;;;;-143.98;100.00;68091.63;5100373;28;20132;-80
2021/04/12 00:11:30;;;;;;;5.03;1.73;;;;;;;-143.98;100.00;68091.63;5101743;28;20062;-80
2021/04/12 00:14:21;;;;;;;7.72;2.72;;;;;;;-143.98;100.00;68091.63;5120471;28;20060;-80
2021/04/12 00:17:16;;;;;;;4.50;2.17;;;;;;;-143.98;100.00;68091.63;5102184;28;20332;-80
2021/04/12 00:19:50;;;;;;;6.40;2.30;;;;;;;-143.98;100.00;68091.63;5099781;28;20472;-80
2021/04/12 00:22:36;;;;;;;6.53;1.98;;;;;;;-143.98;100.00;68091.63;5084401;28;20048;-80
2021/04/12 00:25:03;;;;;;;8.25;2.80;;;;;;;-143.98;100.00;68091.63;5081352;28;20087;-80
2021/04/12 00:27:36;;;;;;;4.80;2.25;;;;;;;-143.98;100.00;68091.63;5099298;28;20059;-80
2021/04/12 00:30:02;;;;;;;6.85;2.15;;;;;;;-143.98;100.00;68091.63;5098223;28;20056;-80
2021/04/12 00:32:50;;;;;;;4.45;2.45;;;;;;;-143.98;100.00;68091.63;5097251;28;20135;-80
2021/04/12 00:35:33;;;;;;;4.72;2.50;;;;;;;-143.98;100.00;68091.63;5081944;28;20067;-80
2021/04/12 00:38:23;;;;;;;11.13;2.65;;;;;;;-143.98;100.00;68091.63;5099662;28;20075;-80
2021/04/12 00:41:19;;;;;;;7.15;2.63;;;;;;;-143.98;100.00;68091.63;5093835;28;20068;-80
2021/04/12 00:43:57;;;;;;;5.57;2.50;;;;;;;-143.98;100.00;68091.63;5109188;28;20051;-80
2021/04/12 00:46:49;;;;;;;6.40;2.47;;;;;;;-143.98;100.00;68091.63;5082871;28;20052;-80
2021/04/12 00:49:46;;;;;;;8.43;2.47;;;;;;;-143.98;100.00;68091.63;5100949;28;20066;-80
2021/04/12 00:52:31;;;;;;;;;;;;;;;-143.98;100.00;68091.63;5109287;28;20059;-79
2021/04/12 00:55:09;;;;;;;12.27;2.85;;;;;;;-143.98;100.00;68091.63;5107951;28;20268;-81
2021/04/12 00:57:46;;;;;;;5.32;2.25;;;;;;;-143.98;100.00;68091.63;5100684;28;20056;-80
2021/04/12 01:00:24;;;;;;;5.88;2.65;;;;;;;-143.98;100.00;68091.63;5096966;28;20052;-80
2021/04/12 01:03:22;;;;;;;10.55;2.80;;;;;;;-143.98;100.00;68091.63;5080527;28;20056;-80
2021/04/12 01:06:07;;;;;;;11.05;2.95;;;;;;;-143.98;100.00;68091.63;5083952;28;20060;-81
2021/04/12 01:08:52;;;;;;;9.10;4.25;;;;;;;-143.98;100.00;68091.63;5100908;28;20048;-80
2021/04/12 01:11:31;;;;;;;7.43;2.87;;;;;;;-143.98;100.00;68091.63;5106354;28;20080;-80
2021/04/12 01:14:03;;;;;;;9.35;2.58;;;;;;;-143.98;100.00;68091.63;5111248;28;20670;-80
2021/04/12 01:16:38;;;;;;;5.05;2.42;;;;;;;-143.98;100.00;68091.63;5112888;28;20052;-81
2021/04/12 01:19:37;;;;;;;10.38;3.15;;;;;;;-143.98;100.00;68091.63;5114178;28;20059;-81
2021/04/12 01:22:28;;;;;;;11.02;2.83;;;;;;;-143.98;100.00;68091.63;5113034;28;20043;-81
2021/04/12 01:25:32;;;;;;;12.25;3.22;;;;;;;-143.98;100.00;68091.63;5115952;28;20059;-81
2021/04/12 01:28:30;;;;;;;6.07;2.80;;;;;;;-143.98;100.00;68091.63;5133753;28;20101;-81
2021/04/12 01:31:21;;;;;;;6.30;2.83;;;;;;;-143.98;100.00;68091.63;5133365;28;20089;-82
2021/04/12 01:34:15;;;;;;;10.43;3.15;;;;;;;-143.98;100.00;68091.63;5134851;28;20049;-81
2021/04/12 01:36:42;;;;;;;6.82;3.15;;;;;;;-143.98;100.00;68091.63;5117698;28;20044;-81
2021/04/12 01:39:30;;;;;;;7.15;2.72;;;;;;;-143.98;100.00;68091.63;5115482;28;20055;-81
2021/04/12 01:42:26;;;;;;;7.63;2.83;;;;;;;-143.98;100.00;68091.63;5134244;28;20327;-83
2021/04/12 01:45:09;;;;;;;12.17;3.90;;;;;;;-143.98;100.00;68091.63;5132812;28;20066;-81
2021/04/12 01:47:48;;;;;;;6.03;3.10;;;;;;;-143.98;100.00;68091.63;5116095;28;20490;-81
2021/04/12 01:50:32;;;;;;;7.95;3.30;;;;;;;-143.98;100.00;68091.63;5124979;28;20167;-81
2021/04/12 01:53:27;;;;;;;10.23;3.03;;;;;;;-143.98;100.00;68091.63;5104201;28;20087;-82
2021/04/12 01:56:02;;;;;;;15.88;3.05;;;;;;;-143.98;100.00;68091.63;5104062;28;20051;-82
2021/04/12 01:58:53;;;;;;;5.73;2.97;;;;;;;-143.98;100.00;68091.63;5103445;28;20051;-81
2021/04/12 02:02:01;;;;;;;6.50;3.53;;;;;;;-143.98;100.00;68091.63;5103242;28;20064;-82
2021/04/12 02:04:40;;;;;;;5.10;3.15;;;;;;;-143.98;100.00;68091.63;5120876;28;20056;-81
2021/04/12 02:07:28;;;;;;;6.88;2.03;;;;;;;-143.98;100.00;68091.63;5120287;28;20059;-81
2021/04/12 02:10:00;;;;;;;9.23;3.00;;;;;;;-143.98;100.00;68091.63;5119880;28;20406;-81
2021/04/12 02:12:40;;;;;;;11.75;3.40;;;;;;;-143.98;100.00;68091.63;5116207;28;20056;-81
2021/04/12 02:15:14;;;;;;;12.65;3.67;;;;;;;-143.98;100.00;68091.63;5084292;28;20055;-82
2021/04/12 02:18:05;;;;;;;8.98;3.83;;;;;;;-143.98;100.00;68091.63;5084412;28;20059;-81
2021/04/12 02:20:57;;;;;;;7.80;3.50;;;;;;;-143.98;100.00;68091.63;5102156;28;20044;-81
2021/04/12 02:23:48;;;;;;;8.05;2.88;;;;;;;-143.98;100.00;68091.63;5116823;28;20074;-81
2021/04/12 02:26:16;;;;;;;5.72;2.83;;;;;;;-143.98;100.00;68091.63;5132904;28;20102;-81
2021/04/12 02:29:01;;;;;;;6.82;3.42;;;;;;;-143.98;100.00;68091.63;5133967;28;20067;-81
2021/04/12 02:31:52;;;;;;;8.27;3.10;;;;;;;-143.98;100.00;68091.63;5106136;28;20192;-81
2021/04/12 02:34:49;;;;;;;8.52;2.88;;;;;;;-143.98;100.00;68091.63;5123230;28;20081;-81
2021/04/12 02:37:33;;;;;;;12.55;3.25;;;;;;;-143.98;100.00;68091.63;5112017;28;20051;-81
2021/04/12 02:40:08;;;;;;;9.25;3.80;;;;;;;-143.98;100.00;68091.63;5118506;28;20055;-81
2021/04/12 02:43:06;;;;;;;6.78;3.10;;;;;;;-143.98;100.00;68091.63;5118563;28;20108;-81
2021/04/12 02:45:57;;;;;;;14.10;3.45;;;;;;;-143.98;100.00;68091.63;5099413;28;20082;-81
2021/04/12 02:48:47;;;;;;;7.85;3.75;;;;;;;-143.98;100.00;68091.63;5118885;28;20056;-81
2021/04/12 02:51:52;;;;;;;8.27;3.90;;;;;;;-143.98;100.00;68091.63;5082551;28;20066;-80
2021/04/12 02:54:49;;;;;;;4.75;3.00;;;;;;;-143.98;100.00;68091.63;5083969;28;20090;-80
2021/04/12 02:57:37;;;;;;;12.35;3.47;;;;;;;-143.98;100.00;68091.63;5098967;28;20059;-80
2021/04/12 03:00:10;;;;;;;8.98;3.95;;;;;;;-143.98;100.00;68091.63;5098600;28;20059;-80
2021/04/12 03:03:14;;;;;;;7.95;3.50;;;;;;;-143.98;100.00;68091.63;5081278;28;20076;-80
2021/04/12 03:06:06;;;;;;;12.73;3.65;;;;;;;-143.98;100.00;68091.63;5117306;28;20055;-80
2021/04/12 03:08:55;;;;;;;6.80;4.18;;;;;;;-143.98;100.00;68091.63;5098939;28;20308;-80
2021/04/12 03:11:40;;;;;;;9.25;3.80;;;;;;;-143.98;100.00;68091.63;5123004;28;20158;-80
2021/04/12 03:14:35;;;;;;;7.72;3.97;;;;;;;-143.98;100.00;68091.63;5123120;28;20066;-80
2021/04/12 03:17:11;;;;;;;9.02;4.38;;;;;;;-143.98;100.00;68091.63;5124200;28;20311;-80
2021/04/12 03:19:58;;;;;;;11.63;4.95;;;;;;;-143.98;100.00;68091.63;5094326;28;20055;-80
2021/04/12 03:23:07;;;;;;;14.30;4.30;;;;;;;-143.98;100.00;68091.63;5133080;28;20047;-80
2021/04/12 03:26:00;;;;;;;6.35;4.50;;;;;;;-143.98;100.00;68091.63;5132927;28;20063;-80
2021/04/12 03:29:00;;;;;;;8.50;3.97;;;;;;;-143.98;100.00;68091.63;5092709;28;20047;-80
2021/04/12 03:31:32;;;;;;;12.07;5.13;;;;;;;-143.98;100.00;68091.63;5119525;28;20101;-80
2021/04/12 03:34:09;;;;;;;12.23;4.22;;;;;;;-143.98;100.00;68091.63;5120396;28;20051;-81
2021/04/12 03:36:38;;;;;;;8.70;4.50;;;;;;;-143.98;100.00;68091.63;5103695;28;20066;-81
2021/04/12 03:39:30;;;;;;;17.13;4.78;;;;;;;-143.98;100.00;68091.63;5120257;28;20063;-81
2021/04/12 03:42:10;;;;;;;8.52;4.25;;;;;;;-143.98;100.00;68091.63;5090912;28;20047;-80
2021/04/12 03:45:13;;;;;;;6.55;4.90;;;;;;;-143.98;100.00;68091.63;5101730;28;20062;-81
2021/04/12 03:48:01;;;;;;;8.15;4.75;;;;;;;-143.98;100.00;68091.63;5100867;28;20058;-81
2021/04/12 03:50:55;;;;;;;14.07;5.72;;;;;;;-143.98;100.00;68091.63;5101981;28;20066;-81
2021/04/12 03:53:52;;;;;;;11.27;4.60;;;;;;;-143.98;100.00;68091.63;5100241;28;20055;-81
2021/04/12 03:56:30;;;;;;;8.45;5.05;;;;;;;-143.98;100.00;68091.63;5100572;28;20124;-80
2021/04/12 03:59:16;;;;;;;17.90;5.65;;;;;;;-143.98;100.00;68091.63;5100942;28;20116;-81
2021/04/12 04:02:29;;;;;;;11.88;5.50;;;;;;;-143.98;100.00;68091.63;5083403;28;20056;-81
2021/04/12 04:05:01;;;;;;;7.00;4.50;;;;;;;-143.98;100.00;68091.63;5119620;28;20055;-81
2021/04/12 04:07:48;;;;;;;11.07;5.05;;;;;;;-143.98;100.00;68091.63;5124720;28;20055;-81
2021/04/12 04:10:56;;;;;;;10.68;5.95;;;;;;;-143.98;100.00;68091.63;5117913;28;20246;-80
2021/04/12 04:13:55;;;;;;;11.73;4.68;;;;;;;-143.98;100.00;68091.63;5101581;28;20086;-80
2021/04/12 04:16:50;;;;;;;13.27;5.63;;;;;;;-143.98;100.00;68091.63;5120111;28;20065;-80
2021/04/12 04:19:37;;;;;;;25.15;6.18;;;;;;;-143.98;100.00;68091.63;5102275;28;20048;-80
2021/04/12 04:22:34;;;;;;;14.82;6.03;;;;;;;-143.98;100.00;68091.63;5126876;28;20053;-80
2021/04/12 04:25:20;;;;;;;11.32;5.03;;;;;;;-143.98;100.00;68091.63;5100594;28;20067;-81
2021/04/12 04:27:51;;;;;;;11.13;4.85;;;;;;;-143.98;100.00;68091.63;5100564;28;20063;-81
2021/04/12 04:30:53;;;;;;;12.48;4.55;;;;;;;-143.98;100.00;68091.63;5096397;28;20052;-81
2021/04/12 04:33:34;;;;;;;9.68;5.07;;;;;;;-143.98;100.00;68091.63;5095715;28;20063;-81
2021/04/12 04:36:24;;;;;;;9.00;4.72;;;;;;;-143.98;100.00;68091.63;5096588;28;20052;-81
2021/04/12 04:39:25;;;;;;;7.72;4.43;;;;;;;-143.98;100.00;68091.63;5096680;28;20066;-81
2021/04/12 04:42:08;;;;;;;10.90;5.15;;;;;;;-143.98;100.00;68091.63;5097079;28;20079;-81
2021/04/12 04:44:49;;;;;;;15.45;5.28;;;;;;;-143.98;100.00;68091.63;5096533;28;20079;-80
2021/04/12 04:47:34;;;;;;;9.68;5.10;;;;;;;-143.98;100.00;68091.63;5096090;28;20064;-82
2021/04/12 04:50:25;;;;;;;13.02;5.55;;;;;;;-143.98;100.00;68091.63;5095831;28;20048;-80
2021/04/12 04:53:14;;;;;;;12.13;5.68;;;;;;;-143.98;100.00;68091.63;5094891;28;20052;-81
2021/04/12 04:56:22;;;;;;;13.43;5.43;;;;;;;-143.98;100.00;68091.63;5095993;28;20328;-81
2021/04/12 04:59:07;;;;;;;19.15;5.55;;;;;;;-143.98;100.00;68091.63;5071875;28;20193;-81
2021/04/12 05:01:45;;;;;;;10.73;5.35;;;;;;;-143.98;100.00;68091.63;5093274;28;20056;-81
2021/04/12 05:04:45;;;;;;;10.18;5.20;;;;;;;-143.98;100.00;68091.63;5075880;28;20617;-81
2021/04/12 05:07:52;;;;;;;13.63;5.35;;;;;;;-143.98;100.00;68091.63;5094998;28;20060;-81
2021/04/12 05:10:47;;;;;;;12.43;4.15;;;;;;;-143.98;100.00;68091.63;5093463;28;20190;-80
2021/04/12 05:13:26;;;;;;;15.52;5.32;;;;;;;-143.98;100.00;68091.63;5094848;28;20052;-82
2021/04/12 05:16:17;;;;;;;12.52;4.78;;;;;;;-143.98;100.00;68091.63;5074865;28;20063;-81
2021/04/12 05:19:16;;;;;;;10.90;4.57;;;;;;;-143.98;100.00;68091.63;5090165;28;20140;-81
2021/04/12 05:22:02;;;;;;;12.82;5.05;;;;;;;-143.98;100.00;68091.63;5090178;28;20113;-81
2021/04/12 05:24:34;;;;;;;19.30;4.35;;;;;;;-143.98;100.00;68091.63;5088671;28;20356;-80
2021/04/12 05:27:12;;;;;;;13.98;4.32;;;;;;;-143.98;100.00;68091.63;5068036;28;20435;-80
2021/04/12 05:29:57;;;;;;;7.03;3.92;;;;;;;-143.98;100.00;68091.63;5068819;28;20271;-80
2021/04/12 05:33:01;;;;;;;8.13;4.03;;;;;;;-143.98;100.00;68091.63;5067513;28;20060;-81
2021/04/12 05:36:05;;;;;;;14.55;3.97;;;;;;;-143.98;100.00;68091.63;5069737;28;20053;-81
2021/04/12 05:39:08;;;;;;;11.90;4.00;;;;;;;-143.98;100.00;68091.63;5069603;28;20075;-81
2021/04/12 05:41:56;;;;;;;12.27;3.90;;;;;;;-143.98;100.00;68091.63;5069778;28;20059;-80
2021/04/12 05:45:15;;;;;;;11.10;4.38;;;;;;;-143.98;100.00;68091.63;5069088;28;20055;-81
2021/04/12 05:48:17;;;;;;;10.52;3.97;;;;;;;-143.98;100.00;68091.63;5011663;28;20456;-81
2021/04/12 05:50:49;;;;;;;13.25;3.35;;;;;;;-143.98;100.00;68091.63;5001697;28;20226;-81
2021/04/12 05:53:41;;;;;;;9.38;3.58;;;;;;;-143.98;100.00;68091.63;5010895;28;20447;-81
2021/04/12 05:56:34;;;;;;;10.75;3.65;;;;;;;-143.98;100.00;68091.63;5012485;28;20049;-81
2021/04/12 05:59:19;;;;;;;6.43;3.22;;;;;;;-143.98;100.00;68091.63;5043640;28;20075;-81
2021/04/12 06:02:13;;;;;;;9.85;3.20;;;;;;;-143.98;100.00;68091.63;5052087;28;20159;-81
2021/04/12 06:05:04;;;;;;;8.52;2.97;;;;;;;-143.98;100.00;68091.63;5069393;28;20263;-81
2021/04/12 06:07:57;;;;;;;5.15;2.80;;;;;;;-143.98;100.00;68091.63;5049695;28;20092;-81
2021/04/12 06:10:51;;;;;;;6.32;2.47;;;;;;;-143.98;100.00;68091.63;5066275;28;20470;-81
2021/04/12 06:14:01;;;;;;;9.55;3.17;;;;;;;-143.98;100.00;68091.63;5066238;28;20267;-80
2021/04/12 06:16:54;;;;;;;6.38;2.80;;;;;;;-143.98;100.00;68091.63;5068669;28;20056;-83
2021/04/12 06:19:42;;;;;;;10.13;3.60;;;;;;;-143.98;100.00;68091.63;5068752;28;20115;-83
2021/04/12 06:22:15;;;;;;;5.80;2.70;;;;;;;-143.98;100.00;68091.63;5071420;28;20062;-81
2021/04/12 06:25:05;;;;;;;8.50;2.25;;;;;;;-143.98;100.00;68091.63;5074329;28;20064;-83
2021/04/12 06:27:49;;;;;;;6.45;2.42;;;;;;;-143.98;100.00;68091.63;5093145;28;20180;-82
2021/04/12 06:30:52;;;;;;;8.57;1.88;;;;;;;-143.98;100.00;68091.63;5093214;28;20055;-83
2021/04/12 06:33:51;;;;;;;6.97;2.13;;;;;;;-143.98;100.00;68091.63;5087926;28;20055;-82
2021/04/12 06:36:30;;;;;;;7.47;2.03;;;;;;;-143.98;100.00;68091.63;5090251;28;20240;-81
2021/04/12 06:39:30;;;;;;;10.45;2.53;;;;;;;-143.98;100.00;68091.63;5089295;28;20051;-82
2021/04/12 06:42:18;;;;;;;9.30;2.55;;;;;;;-143.98;100.00;68091.63;5107494;28;20056;-82
2021/04/12 06:45:24;;;;;;;9.82;2.53;;;;;;;-143.98;100.00;68091.63;5107377;28;20054;-81
2021/04/12 06:48:17;;;;;;;6.10;2.47;;;;;;;-143.98;100.00;68091.63;5107668;28;20101;-81
2021/04/12 06:51:05;;;;;;;10.43;1.90;;;;;;;-143.98;100.00;68091.63;5090018;28;20054;-80
2021/04/12 06:53:54;;;;;;;7.85;1.92;;;;;;;-143.98;100.00;68091.63;5089380;28;20055;-81
2021/04/12 06:56:32;;;;;;;6.05;2.03;;;;;;;-143.98;100.00;68091.63;5089425;28;20047;-82
2021/04/12 06:59:20;;;;;;;9.90;3.45;;;;;;;-143.98;100.00;68091.63;5090476;28;20104;-82
2021/04/12 07:02:38;;;;;;;8.00;2.13;;;;;;;-143.98;100.00;68091.63;5107692;28;20073;-82
2021/04/12 07:05:49;;;;;;;7.00;1.65;;;;;;;-143.98;100.00;68091.63;5071290;28;20158;-82
2021/04/12 07:08:52;;;;;;;4.72;2.80;;;;;;;-143.98;100.00;68091.63;5089057;28;20355;-81
2021/04/12 07:11:46;;;;;;;6.80;1.77;;;;;;;-143.98;100.00;68091.63;5089676;28;20244;-82
2021/04/12 07:14:57;;;;;;;6.32;2.25;;;;;;;-143.98;100.00;68091.63;5105583;28;20053;-82
2021/04/12 07:17:54;;;;;;;7.20;1.90;;;;;;;-143.98;100.00;68091.63;5106766;28;20063;-83
2021/04/12 07:21:07;;;;;;;8.32;2.00;;;;;;;-143.98;100.00;68091.63;5087378;28;20055;-82
2021/04/12 07:23:55;;;;;;;3.95;1.38;;;;;;;-143.98;100.00;68091.63;5072659;28;20048;-81
2021/04/12 07:26:43;;;;;;;4.30;1.83;;;;;;;-143.98;100.00;68091.63;5106602;28;20063;-82
2021/04/12 07:29:44;;;;;;;6.93;2.22;;;;;;;-143.98;100.00;68091.63;5087871;28;20124;-81
2021/04/12 07:32:43;;;;;;;6.53;1.50;;;;;;;-143.98;100.00;68091.63;5056159;28;20091;-81
2021/04/12 07:35:49;;;;;;;4.22;1.83;;;;;;;-143.98;100.00;68091.63;5087595;28;20062;-81
2021/04/12 07:38:19;;;;;;;5.63;1.47;;;;;;;-143.98;100.00;68091.63;5094675;28;20423;-81
2021/04/12 07:41:23;;;;;;;6.78;1.65;;;;;;;-143.98;100.00;68091.63;5100470;28;20507;-82
2021/04/12 07:44:19;;;;;;;4.50;1.53;;;;;;;-143.98;100.00;68091.63;5118861;28;20047;-82
2021/04/12 07:47:20;;;;;;;6.57;2.13;;;;;;;-143.98;100.00;68091.63;5108372;28;20066;-82
2021/04/12 07:50:25;;;;;;;5.15;2.08;;;;;;;-143.98;100.00;68091.63;5089013;28;20053;-82
2021/04/12 07:53:22;;;;;;;6.70;1.20;;;;;;;-143.98;100.00;68091.63;5103070;28;20063;-82
2021/04/12 07:56:01;;;;;;;4.45;1.33;;;;;;;-143.98;100.00;68091.63;5093828;28;20283;-81
2021/04/12 07:59:05;;;;;;;7.10;2.20;;;;;;;-143.98;100.00;68091.63;5091247;28;20409;-81
2021/04/12 08:01:32;;;;;;;8.93;1.90;;;;;;;-143.98;100.00;68091.63;5092528;28;20168;-83
2021/04/12 08:04:36;;;;;;;4.88;1.42;;;;;;;-143.98;100.00;68091.63;5099196;28;20110;-83
2021/04/12 08:07:40;;;;;;;4.82;1.52;;;;;;;-143.98;100.00;68091.63;5127582;27;20075;-82
2021/04/12 08:10:45;;;;;;;9.68;1.63;;;;;;;-143.98;100.00;68091.63;5127736;28;20051;-82
2021/04/12 08:13:41;;;;;;;2.90;1.08;;;;;;;-143.98;100.00;68091.63;5126788;27;20063;-82
2021/04/12 08:16:40;;;;;;;10.82;1.55;;;;;;;-143.98;100.00;68091.63;5110725;28;20052;-83
2021/04/12 08:19:31;;;;;;;6.15;1.13;;;;;;;-143.98;100.00;68091.63;5109403;28;20056;-82
2021/04/12 08:22:34;;;;;;;5.90;1.15;;;;;;;-143.98;100.00;68091.63;5109563;28;20052;-82
2021/04/12 08:25:45;;;;;;;3.35;1.00;;;;;;;-143.98;100.00;68091.63;5109058;28;20187;-82
2021/04/12 08:28:14;;;;;;;4.88;1.30;;;;;;;-143.98;100.00;68091.63;5091554;28;20242;-82
2021/04/12 08:31:05;;;;;;;4.07;1.08;;;;;;;-143.98;100.00;68091.63;5113149;28;20060;-82
2021/04/12 08:34:06;;;;;;;9.18;1.70;;;;;;;-143.98;100.00;68091.63;5095579;28;20105;-82
2021/04/12 08:36:59;;;;;;;6.30;0.90;;;;;;;-143.98;100.00;68091.63;5107693;28;20116;-84
2021/04/12 08:40:00;;;;;;;5.68;0.90;;;;;;;-143.98;100.00;68091.63;5110756;28;20085;-83
2021/04/12 08:42:58;;;;;;;4.63;1.13;;;;;;;-143.98;100.00;68091.63;5029813;28;20053;-82
2021/04/12 08:45:51;;;;;;;4.47;0.88;;;;;;;-143.98;100.00;68091.63;5091182;28;20055;-82
2021/04/12 08:48:20;;;;;;;1.85;0.57;;;;;;;-143.98;100.00;68091.63;5091377;28;20063;-83
2021/04/12 08:50:47;;;;;;;5.15;1.20;;;;;;;-143.98;100.00;68091.63;5107257;28;20047;-84
2021/04/12 08:54:01;;;;;;;2.08;0.65;;;;;;;-143.98;100.00;68091.63;5092578;28;20063;-83
2021/04/12 08:57:01;;;;;;;4.28;0.75;;;;;;;-143.98;100.00;68091.63;5061300;28;20051;-82
2021/04/12 08:59:33;;;;;;;2.70;0.95;;;;;;;-143.98;100.00;68091.63;5090750;28;20055;-82
2021/04/12 09:02:26;;;;;;;6.67;1.23;;;;;;;-143.98;100.00;68091.63;5107028;28;20146;-84
2021/04/12 09:05:24;;;;;;;2.15;0.77;;;;;;;-143.98;100.00;68091.63;5092487;28;20095;-84
2021/04/12 09:08:31;;;;;;;2.63;0.90;;;;;;;-143.98;100.00;68091.63;5089291;28;20059;-83
2021/04/12 09:11:03;;;;;;;2.67;0.80;;;;;;;-143.98;100.00;68091.63;5090294;28;20109;-81
2021/04/12 09:13:39;;;;;;;2.30;0.60;;;;;;;-143.98;100.00;68091.63;5111968;28;20048;-83
2021/04/12 09:16:22;;;;;;;3.17;0.75;;;;;;;-143.98;100.00;68091.63;5093628;28;20055;-82
2021/04/12 09:19:26;;;;;;;3.45;0.90;;;;;;;-143.98;100.00;68091.63;5109928;28;20112;-83
2021/04/12 09:22:19;;;;;;;4.25;0.70;;;;;;;-143.98;100.00;68091.63;5105260;28;20052;-83
2021/04/12 09:25:23;;;;;;;4.60;0.77;;;;;;;-143.98;100.00;68091.63;5092161;28;20055;-83
2021/04/12 09:28:10;;;;;;;3.10;0.75;;;;;;;-143.98;100.00;68091.63;5074922;28;20047;-83
2021/04/12 09:31:14;;;;;;;2.75;1.00;;;;;;;-143.98;100.00;68091.63;5091344;28;20145;-82
2021/04/12 09:33:48;;;;;;;5.15;0.90;;;;;;;-143.98;100.00;68091.63;5095460;28;20535;-82
2021/04/12 09:36:38;;;;;;;2.28;0.80;;;;;;;-143.98;100.00;68091.63;5108512;28;20435;-84
2021/04/12 09:39:10;;;;;;;3.70;0.50;;;;;;;-143.98;100.00;68091.63;5090181;28;20062;-82
2021/04/12 09:42:05;;;;;;;2.35;0.60;;;;;;;-143.98;100.00;68091.63;5105290;28;20086;-82
2021/04/12 09:44:55;;;;;;;0.95;0.43;;;;;;;-143.98;100.00;68091.63;5077107;28;20244;-82
2021/04/12 09:47:39;;;;;;;4.43;0.70;;;;;;;-143.98;100.00;68091.63;5103830;28;20480;-83
2021/04/12 09:50:40;;;;;;;1.60;0.52;;;;;;;-143.98;100.00;68091.63;5087091;28;20055;-83
2021/04/12 09:53:27;;;;;;;2.88;0.80;;;;;;;-143.98;100.00;68091.63;5105516;28;20055;-83
2021/04/12 09:56:31;;;;;;;4.47;0.80;;;;;;;-143.98;100.00;68091.63;5109240;28;20087;-84
2021/04/12 09:59:10;;;;;;;2.50;0.57;;;;;;;-143.98;100.00;68091.63;5090413;28;20252;-85
2021/04/12 10:02:06;;;;;;;3.47;0.70;;;;;;;-143.98;100.00;68091.63;5117519;28;20153;-82
2021/04/12 10:04:51;;;;;;;3.78;0.80;;;;;;;-143.98;100.00;68091.63;5118698;28;20623;-79
2021/04/12 10:07:50;;;;;;;2.83;0.57;;;;;;;-143.98;100.00;68091.63;5080635;28;20217;-80
2021/04/12 10:10:23;;;;;;;3.63;0.65;;;;;;;-143.98;100.00;68091.63;5112007;28;20492;-81
2021/04/12 10:13:27;;;;;;;2.97;0.70;;;;;;;-143.98;100.00;68091.63;5094860;28;20074;-80
2021/04/12 10:16:08;;;;;;;0.95;0.50;;;;;;;-143.98;100.00;68091.63;5094495;28;20135;-79
2021/04/12 10:19:03;;;;;;;2.90;0.50;;;;;;;-143.98;100.00;68091.63;5076067;28;20051;-80
2021/04/12 10:21:55;;;;;;;2.72;0.68;;;;;;;-143.98;100.00;68091.63;5100494;28;20062;-80
2021/04/12 10:24:54;;;;;;;3.10;0.60;;;;;;;-143.98;100.00;68091.63;5092863;28;20202;-79
2021/04/12 10:27:35;;;;;;;2.13;0.60;;;;;;;-143.98;100.00;68091.63;5072556;28;20564;-80
2021/04/12 10:30:39;;;;;;;3.53;1.20;;;;;;;-143.98;100.00;68091.63;5073148;28;20347;-81
2021/04/12 10:33:35;;;;;;;3.75;0.77;;;;;;;-143.98;100.00;68091.63;5088759;28;20087;-79
2021/04/12 10:36:31;;;;;;;7.43;0.80;;;;;;;-143.98;100.00;68091.63;5055361;28;20056;-80
2021/04/12 10:39:05;;;;;;;1.52;0.55;;;;;;;-143.98;100.00;68091.63;5089070;28;20447;-80
2021/04/12 10:41:48;;;;;;;1.77;0.68;;;;;;;-143.98;100.00;68091.63;5072009;28;20511;-82
2021/04/12 10:44:29;;;;;;;3.30;0.80;;;;;;;-143.98;100.00;68091.63;5082947;28;20143;-80
2021/04/12 10:47:19;;;;;;;6.05;0.85;;;;;;;-143.98;100.00;68091.63;5096542;28;20051;-80
2021/04/12 10:50:15;;;;;;;4.32;0.57;;;;;;;-143.98;100.00;68091.63;5070410;28;20056;-81
2021/04/12 10:53:10;;;;;;;2.75;0.50;;;;;;;-143.98;100.00;68091.63;5054593;28;20146;-81
2021/04/12 10:55:41;;;;;;;1.65;0.55;;;;;;;-143.98;100.00;68091.63;5069810;28;20229;-80
2021/04/12 10:58:20;;;;;;;2.08;0.70;;;;;;;-143.98;100.00;68091.63;5055397;28;20104;-83
2021/04/12 11:01:14;;;;;;;3.63;0.50;;;;;;;-143.98;100.00;68091.63;5057489;28;20254;-80
2021/04/12 11:03:48;;;;;;;3.80;0.70;;;;;;;-143.98;100.00;68091.63;5072281;28;20063;-81
2021/04/12 11:06:44;;;;;;;2.40;0.55;;;;;;;-143.98;100.00;68091.63;5054368;28;20052;-80
2021/04/12 11:09:55;;;;;;;3.40;0.50;;;;;;;-143.98;100.00;68091.63;5080195;28;20063;-79
2021/04/12 11:12:48;;;;;;;2.15;0.40;;;;;;;-143.98;100.00;68091.63;5073857;28;20058;-82
2021/04/12 11:15:21;;;;;;;1.85;0.80;;;;;;;-143.98;100.00;68091.63;5074740;28;20128;-80
2021/04/12 11:18:30;;;;;;;2.60;0.80;;;;;;;-143.98;100.00;68091.63;5076217;28;20048;-79
2021/04/12 11:21:34;;;;;;;2.80;0.63;;;;;;;-143.98;100.00;68091.63;5077790;28;20059;-81
2021/04/12 11:24:42;;;;;;;1.88;0.60;;;;;;;-143.98;100.00;68091.63;5067481;28;20094;-80
2021/04/12 11:27:40;;;;;;;3.63;0.80;;;;;;;-143.98;100.00;68091.63;5096066;28;20083;-82
2021/04/12 11:30:18;;;;;;;4.60;0.70;;;;;;;-143.98;100.00;68091.63;5100468;28;20079;-80
2021/04/12 11:33:05;;;;;;;2.95;0.70;;;;;;;-143.98;100.00;68091.63;5108738;28;20134;-84
2021/04/12 11:35:37;;;;;;;3.28;1.00;;;;;;;-143.98;100.00;68091.63;5101673;28;20048;-84
2021/04/12 11:38:13;;;;;;;4.38;0.60;;;;;;;-143.98;100.00;68091.63;5097304;28;20264;-84
2021/04/12 11:41:29;;;;;;;3.80;0.63;;;;;;;-143.98;100.00;68091.63;5082735;28;20059;-84
2021/04/12 11:44:01;;;;;;;4.38;0.80;;;;;;;-143.98;100.00;68091.63;5051955;28;20055;-84
2021/04/12 11:46:45;;;;;;;2.85;0.60;;;;;;;-143.98;100.00;68091.63;5099526;28;20109;-86
2021/04/12 11:49:30;;;;;;;4.70;0.90;;;;;;;-143.98;100.00;68091.63;5098774;28;20246;-83
2021/04/12 11:52:11;;;;;;;1.90;0.60;;;;;;;-143.98;100.00;68091.63;5084141;28;20062;-83
2021/04/12 11:55:11;;;;;;;4.07;0.75;;;;;;;-143.98;100.00;68091.63;5097568;28;20275;-84
2021/04/12 11:57:50;;;;;;;2.33;0.43;;;;;;;-143.98;100.00;68091.63;5097259;28;20076;-85
2021/04/12 12:00:42;;;;;;;3.47;0.75;;;;;;;-143.98;100.00;68091.63;5095292;28;20165;-83
2021/04/12 12:03:52;;;;;;;2.03;0.45;;;;;;;-143.98;100.00;68091.63;5097530;28;20104;-84
2021/04/12 12:06:30;;;;;;;6.85;0.80;;;;;;;-143.98;100.00;68091.63;5036401;28;20049;-83
2021/04/12 12:09:08;;;;;;;2.78;0.70;;;;;;;-143.98;100.00;68091.63;5035617;28;20067;-84
2021/04/12 12:12:00;;;;;;;4.10;0.50;;;;;;;-143.98;100.00;68091.63;5082005;28;20303;-84
2021/04/12 12:14:54;;;;;;;3.47;0.60;;;;;;;-143.98;100.00;68091.63;5078402;28;20052;-84
2021/04/12 12:17:28;;;;;;;2.53;0.95;;;;;;;-143.98;100.00;68091.63;5080999;28;20060;-83
2021/04/12 12:20:22;;;;;;;0.85;0.50;;;;;;;-143.98;100.00;68091.63;5097140;28;20340;-84
2021/04/12 12:22:51;;;;;;;2.28;0.50;;;;;;;-143.98;100.00;68091.63;5093381;28;20054;-85
2021/04/12 12:25:41;;;;;;;3.15;0.70;;;;;;;-143.98;100.00;68091.63;5101900;28;20354;-84
2021/04/12 12:28:23;;;;;;;2.28;0.50;;;;;;;-143.98;100.00;68091.63;5097193;28;20082;-83
2021/04/12 12:31:38;;;;;;;5.80;0.75;;;;;;;-143.98;100.00;68091.63;5117580;28;20059;-82
2021/04/12 12:34:32;;;;;;;5.47;0.65;;;;;;;-143.98;100.00;68091.63;5046407;28;20121;-83
2021/04/12 12:37:23;;;;;;;4.10;0.80;;;;;;;-143.98;100.00;68091.63;5118069;28;20415;-83
2021/04/12 12:39:56;;;;;;;2.78;0.75;;;;;;;-143.98;100.00;68091.63;5118147;28;20082;-83
2021/04/12 12:42:42;;;;;;;2.78;1.00;;;;;;;-143.98;100.00;68091.63;5081375;28;20217;-84
2021/04/12 12:45:14;;;;;;;3.60;0.70;;;;;;;-143.98;100.00;68091.63;5081043;28;20428;-84
2021/04/12 12:47:56;;;;;;;4.18;0.75;;;;;;;-143.98;100.00;68091.63;5081570;28;20107;-83